sensor_id;sensor_type;location;lat;lon;timestamp;P1;durP1;ratioP1;P2;durP2;ratioP2
71395;SDS011;59888;55.814;37.132;2023-04-08T00:02:03;8.25;;;2.78;;
71395;SDS011;59888;55.814;37.132;2023-04-08T00:04:28;9.07;;;3.30;;
71395;SDS011;59888;55.814;37.132;2023-04-08T00:06:55;9.68;;;3.28;;
71395;SDS011;59888;55.814;37.132;2023-04-08T00:09:22;6.15;;;3.03;;
71395;SDS011;59888;55.814;37.132;2023-04-08T00:11:47;7.38;;;3.20;;
71395;SDS011;59888;55.814;37.132;2023-04-08T00:14:13;9.00;;;3.08;;
71395;SDS011;59888;55.814;37.132;2023-04-08T00:16:40;7.65;;;3.05;;
71395;SDS011;59888;55.814;37.132;2023-04-08T00:19:06;6.32;;;2.90;;
71395;SDS011;59888;55.814;37.132;2023-04-08T00:21:31;10.55;;;3.78;;
71395;SDS011;59888;55.814;37.132;2023-04-08T00:23:57;8.75;;;3.13;;
71395;SDS011;59888;55.814;37.132;2023-04-08T00:26:23;9.18;;;3.25;;
71395;SDS011;59888;55.814;37.132;2023-04-08T00:28:50;10.38;;;2.80;;
71395;SDS011;59888;55.814;37.132;2023-04-08T00:31:16;6.15;;;3.00;;
71395;SDS011;59888;55.814;37.132;2023-04-08T00:33:42;7.93;;;2.58;;
71395;SDS011;59888;55.814;37.132;2023-04-08T00:36:09;9.20;;;2.80;;
71395;SDS011;59888;55.814;37.132;2023-04-08T00:38:35;8.70;;;3.53;;
71395;SDS011;59888;55.814;37.132;2023-04-08T00:41:01;10.15;;;3.25;;
71395;SDS011;59888;55.814;37.132;2023-04-08T00:43:27;11.50;;;3.58;;
71395;SDS011;59888;55.814;37.132;2023-04-08T00:45:52;9.38;;;3.20;;
71395;SDS011;59888;55.814;37.132;2023-04-08T00:48:18;8.40;;;3.10;;
71395;SDS011;59888;55.814;37.132;2023-04-08T00:50:44;15.38;;;3.83;;
71395;SDS011;59888;55.814;37.132;2023-04-08T00:53:13;6.60;;;3.10;;
71395;SDS011;59888;55.814;37.132;2023-04-08T00:55:42;9.27;;;3.45;;
71395;SDS011;59888;55.814;37.132;2023-04-08T00:58:08;9.45;;;3.58;;
71395;SDS011;59888;55.814;37.132;2023-04-08T01:00:35;11.55;;;3.45;;
71395;SDS011;59888;55.814;37.132;2023-04-08T01:03:09;9.68;;;3.80;;
71395;SDS011;59888;55.814;37.132;2023-04-08T01:08:29;15.43;;;4.43;;
71395;SDS011;59888;55.814;37.132;2023-04-08T01:10:58;15.15;;;4.10;;
71395;SDS011;59888;55.814;37.132;2023-04-08T01:13:29;9.32;;;4.03;;
71395;SDS011;59888;55.814;37.132;2023-04-08T01:15:59;10.55;;;4.30;;
71395;SDS011;59888;55.814;37.132;2023-04-08T01:18:25;11.40;;;4.28;;
71395;SDS011;59888;55.814;37.132;2023-04-08T01:20:52;12.43;;;4.60;;
71395;SDS011;59888;55.814;37.132;2023-04-08T01:26:12;11.60;;;4.60;;
71395;SDS011;59888;55.814;37.132;2023-04-08T01:28:47;14.32;;;4.38;;
71395;SDS011;59888;55.814;37.132;2023-04-08T01:31:16;14.20;;;4.53;;
71395;SDS011;59888;55.814;37.132;2023-04-08T01:33:43;11.75;;;4.28;;
71395;SDS011;59888;55.814;37.132;2023-04-08T01:36:10;8.10;;;3.55;;
71395;SDS011;59888;55.814;37.132;2023-04-08T01:38:37;11.48;;;3.80;;
71395;SDS011;59888;55.814;37.132;2023-04-08T01:41:03;11.05;;;3.55;;
71395;SDS011;59888;55.814;37.132;2023-04-08T01:43:30;12.65;;;4.00;;
71395;SDS011;59888;55.814;37.132;2023-04-08T01:45:59;14.93;;;4.50;;
71395;SDS011;59888;55.814;37.132;2023-04-08T01:48:26;12.15;;;3.92;;
71395;SDS011;59888;55.814;37.132;2023-04-08T01:50:53;13.00;;;4.32;;
71395;SDS011;59888;55.814;37.132;2023-04-08T01:53:21;11.75;;;4.45;;
71395;SDS011;59888;55.814;37.132;2023-04-08T01:55:48;13.65;;;4.43;;
71395;SDS011;59888;55.814;37.132;2023-04-08T01:58:34;8.90;;;3.78;;
71395;SDS011;59888;55.814;37.132;2023-04-08T02:01:04;17.27;;;4.53;;
71395;SDS011;59888;55.814;37.132;2023-04-08T02:03:34;13.40;;;4.50;;
71395;SDS011;59888;55.814;37.132;2023-04-08T02:06:01;8.75;;;3.67;;
71395;SDS011;59888;55.814;37.132;2023-04-08T02:08:27;13.55;;;4.10;;
71395;SDS011;59888;55.814;37.132;2023-04-08T02:10:52;14.43;;;4.38;;
71395;SDS011;59888;55.814;37.132;2023-04-08T02:13:18;10.35;;;3.72;;
71395;SDS011;59888;55.814;37.132;2023-04-08T02:15:48;14.32;;;4.35;;
71395;SDS011;59888;55.814;37.132;2023-04-08T02:18:21;8.63;;;3.70;;
71395;SDS011;59888;55.814;37.132;2023-04-08T02:21:00;14.45;;;4.32;;
71395;SDS011;59888;55.814;37.132;2023-04-08T02:23:39;9.88;;;3.55;;
71395;SDS011;59888;55.814;37.132;2023-04-08T02:26:07;12.70;;;4.05;;
71395;SDS011;59888;55.814;37.132;2023-04-08T02:28:38;12.43;;;3.10;;
71395;SDS011;59888;55.814;37.132;2023-04-08T02:31:10;11.90;;;4.20;;
71395;SDS011;59888;55.814;37.132;2023-04-08T02:33:43;12.52;;;4.10;;
71395;SDS011;59888;55.814;37.132;2023-04-08T02:36:11;10.98;;;3.67;;
71395;SDS011;59888;55.814;37.132;2023-04-08T02:38:39;11.30;;;3.30;;
71395;SDS011;59888;55.814;37.132;2023-04-08T02:41:05;9.32;;;3.65;;
71395;SDS011;59888;55.814;37.132;2023-04-08T02:43:31;12.27;;;3.75;;
71395;SDS011;59888;55.814;37.132;2023-04-08T02:45:58;11.93;;;3.45;;
71395;SDS011;59888;55.814;37.132;2023-04-08T02:48:28;14.98;;;3.70;;
71395;SDS011;59888;55.814;37.132;2023-04-08T02:50:57;11.40;;;4.00;;
71395;SDS011;59888;55.814;37.132;2023-04-08T02:53:23;10.13;;;3.78;;
71395;SDS011;59888;55.814;37.132;2023-04-08T02:55:49;10.45;;;3.92;;
71395;SDS011;59888;55.814;37.132;2023-04-08T02:58:15;11.90;;;3.55;;
71395;SDS011;59888;55.814;37.132;2023-04-08T03:00:41;9.02;;;3.60;;
71395;SDS011;59888;55.814;37.132;2023-04-08T03:03:07;8.20;;;3.42;;
71395;SDS011;59888;55.814;37.132;2023-04-08T03:05:33;10.95;;;3.72;;
71395;SDS011;59888;55.814;37.132;2023-04-08T03:07:58;8.48;;;3.53;;
71395;SDS011;59888;55.814;37.132;2023-04-08T03:10:25;8.02;;;3.55;;
71395;SDS011;59888;55.814;37.132;2023-04-08T03:12:50;13.20;;;3.58;;
71395;SDS011;59888;55.814;37.132;2023-04-08T03:15:16;9.13;;;3.50;;
71395;SDS011;59888;55.814;37.132;2023-04-08T03:17:42;9.73;;;3.25;;
71395;SDS011;59888;55.814;37.132;2023-04-08T03:20:08;14.52;;;4.13;;
71395;SDS011;59888;55.814;37.132;2023-04-08T03:22:35;11.40;;;3.92;;
71395;SDS011;59888;55.814;37.132;2023-04-08T03:25:00;11.20;;;3.42;;
71395;SDS011;59888;55.814;37.132;2023-04-08T08:40:25;10.68;;;3.33;;
71395;SDS011;59888;55.814;37.132;2023-04-08T08:42:52;10.93;;;3.53;;
71395;SDS011;59888;55.814;37.132;2023-04-08T08:45:20;10.82;;;3.60;;
71395;SDS011;59888;55.814;37.132;2023-04-08T08:47:46;10.45;;;3.58;;
71395;SDS011;59888;55.814;37.132;2023-04-08T08:50:12;7.55;;;3.33;;
71395;SDS011;59888;55.814;37.132;2023-04-08T08:52:38;10.05;;;3.53;;
71395;SDS011;59888;55.814;37.132;2023-04-08T08:55:04;8.15;;;3.38;;
71395;SDS011;59888;55.814;37.132;2023-04-08T08:57:30;11.60;;;3.25;;
71395;SDS011;59888;55.814;37.132;2023-04-08T08:59:56;7.90;;;2.13;;
71395;SDS011;59888;55.814;37.132;2023-04-08T09:02:25;4.55;;;1.60;;
71395;SDS011;59888;55.814;37.132;2023-04-08T09:04:59;7.35;;;2.53;;
71395;SDS011;59888;55.814;37.132;2023-04-08T09:07:29;8.27;;;2.75;;
71395;SDS011;59888;55.814;37.132;2023-04-08T09:09:56;8.77;;;3.10;;
71395;SDS011;59888;55.814;37.132;2023-04-08T09:12:23;6.90;;;2.80;;
71395;SDS011;59888;55.814;37.132;2023-04-08T09:15:01;8.60;;;2.60;;
71395;SDS011;59888;55.814;37.132;2023-04-08T09:17:34;10.80;;;3.05;;
71395;SDS011;59888;55.814;37.132;2023-04-08T09:20:08;8.60;;;2.70;;
71395;SDS011;59888;55.814;37.132;2023-04-08T09:25:25;27.38;;;3.80;;
71395;SDS011;59888;55.814;37.132;2023-04-08T09:27:53;9.80;;;2.88;;
71395;SDS011;59888;55.814;37.132;2023-04-08T09:30:22;11.45;;;3.47;;
71395;SDS011;59888;55.814;37.132;2023-04-08T09:32:51;9.00;;;3.65;;
71395;SDS011;59888;55.814;37.132;2023-04-08T09:35:18;8.15;;;3.60;;
71395;SDS011;59888;55.814;37.132;2023-04-08T09:37:45;7.80;;;3.30;;
71395;SDS011;59888;55.814;37.132;2023-04-08T09:40:11;7.57;;;3.55;;
71395;SDS011;59888;55.814;37.132;2023-04-08T09:42:39;6.82;;;3.10;;
71395;SDS011;59888;55.814;37.132;2023-04-08T09:45:06;8.15;;;3.55;;
71395;SDS011;59888;55.814;37.132;2023-04-08T09:48:22;9.68;;;3.80;;
71395;SDS011;59888;55.814;37.132;2023-04-08T09:50:42;10.35;;;3.63;;
71395;SDS011;59888;55.814;37.132;2023-04-08T09:53:14;8.32;;;3.50;;
71395;SDS011;59888;55.814;37.132;2023-04-08T09:55:43;8.93;;;3.70;;
71395;SDS011;59888;55.814;37.132;2023-04-08T09:58:20;9.63;;;3.63;;
71395;SDS011;59888;55.814;37.132;2023-04-08T10:00:51;6.13;;;3.67;;
71395;SDS011;59888;55.814;37.132;2023-04-08T10:03:29;8.32;;;4.00;;
71395;SDS011;59888;55.814;37.132;2023-04-08T10:06:04;11.98;;;3.85;;
71395;SDS011;59888;55.814;37.132;2023-04-08T10:08:32;13.23;;;4.15;;
71395;SDS011;59888;55.814;37.132;2023-04-08T10:10:59;9.70;;;3.75;;
71395;SDS011;59888;55.814;37.132;2023-04-08T10:13:25;9.68;;;3.88;;
71395;SDS011;59888;55.814;37.132;2023-04-08T10:18:44;10.05;;;4.10;;
71395;SDS011;59888;55.814;37.132;2023-04-08T10:23:57;9.40;;;4.00;;
71395;SDS011;59888;55.814;37.132;2023-04-08T10:26:31;14.23;;;5.03;;
71395;SDS011;59888;55.814;37.132;2023-04-08T10:31:42;11.63;;;5.10;;
71395;SDS011;59888;55.814;37.132;2023-04-08T10:34:18;15.75;;;5.55;;
71395;SDS011;59888;55.814;37.132;2023-04-08T10:40:54;10.77;;;4.40;;
71395;SDS011;59888;55.814;37.132;2023-04-08T10:43:20;11.75;;;4.25;;
71395;SDS011;59888;55.814;37.132;2023-04-08T10:45:46;14.02;;;5.05;;
71395;SDS011;59888;55.814;37.132;2023-04-08T10:48:16;17.65;;;4.70;;
71395;SDS011;59888;55.814;37.132;2023-04-08T10:53:26;9.93;;;4.80;;
71395;SDS011;59888;55.814;37.132;2023-04-08T10:56:06;10.68;;;4.68;;
71395;SDS011;59888;55.814;37.132;2023-04-08T11:02:48;8.25;;;4.07;;
71395;SDS011;59888;55.814;37.132;2023-04-08T11:05:14;8.23;;;3.95;;
71395;SDS011;59888;55.814;37.132;2023-04-08T11:07:40;10.90;;;4.90;;
71395;SDS011;59888;55.814;37.132;2023-04-08T11:10:07;5.80;;;3.50;;
71395;SDS011;59888;55.814;37.132;2023-04-08T11:12:33;9.43;;;4.00;;
71395;SDS011;59888;55.814;37.132;2023-04-08T11:15:02;11.35;;;4.65;;
71395;SDS011;59888;55.814;37.132;2023-04-08T11:17:29;7.32;;;4.00;;
71395;SDS011;59888;55.814;37.132;2023-04-08T11:19:55;8.02;;;4.68;;
71395;SDS011;59888;55.814;37.132;2023-04-08T11:22:27;8.30;;;3.65;;
71395;SDS011;59888;55.814;37.132;2023-04-08T11:24:54;8.55;;;4.20;;
71395;SDS011;59888;55.814;37.132;2023-04-08T11:27:21;9.82;;;4.68;;
71395;SDS011;59888;55.814;37.132;2023-04-08T11:29:50;8.68;;;4.13;;
71395;SDS011;59888;55.814;37.132;2023-04-08T11:32:18;8.77;;;4.38;;
71395;SDS011;59888;55.814;37.132;2023-04-08T11:34:44;11.30;;;4.25;;
71395;SDS011;59888;55.814;37.132;2023-04-08T11:37:12;9.38;;;4.90;;
71395;SDS011;59888;55.814;37.132;2023-04-08T11:39:44;12.43;;;5.25;;
71395;SDS011;59888;55.814;37.132;2023-04-08T11:42:29;8.55;;;4.70;;
71395;SDS011;59888;55.814;37.132;2023-04-08T11:44:56;27.13;;;5.38;;
71395;SDS011;59888;55.814;37.132;2023-04-08T11:47:32;8.38;;;4.40;;
71395;SDS011;59888;55.814;37.132;2023-04-08T11:49:58;13.30;;;4.78;;
71395;SDS011;59888;55.814;37.132;2023-04-08T11:55:12;6.95;;;4.32;;
71395;SDS011;59888;55.814;37.132;2023-04-08T11:57:49;10.90;;;5.35;;
71395;SDS011;59888;55.814;37.132;2023-04-08T12:00:17;9.10;;;4.63;;
71395;SDS011;59888;55.814;37.132;2023-04-08T12:02:43;10.45;;;5.00;;
71395;SDS011;59888;55.814;37.132;2023-04-08T12:05:10;6.78;;;4.35;;
71395;SDS011;59888;55.814;37.132;2023-04-08T12:07:36;9.82;;;5.18;;
71395;SDS011;59888;55.814;37.132;2023-04-08T12:10:02;9.45;;;5.22;;
71395;SDS011;59888;55.814;37.132;2023-04-08T12:12:28;11.02;;;5.32;;
71395;SDS011;59888;55.814;37.132;2023-04-08T12:14:54;14.65;;;5.75;;
71395;SDS011;59888;55.814;37.132;2023-04-08T12:17:20;8.15;;;4.85;;
71395;SDS011;59888;55.814;37.132;2023-04-08T12:19:46;9.10;;;4.95;;
71395;SDS011;59888;55.814;37.132;2023-04-08T12:22:12;8.82;;;4.85;;
71395;SDS011;59888;55.814;37.132;2023-04-08T12:24:38;10.02;;;5.18;;
71395;SDS011;59888;55.814;37.132;2023-04-08T12:27:04;10.70;;;5.25;;
71395;SDS011;59888;55.814;37.132;2023-04-08T12:29:30;11.68;;;5.63;;
71395;SDS011;59888;55.814;37.132;2023-04-08T12:31:56;11.75;;;5.22;;
71395;SDS011;59888;55.814;37.132;2023-04-08T12:34:22;11.68;;;5.10;;
71395;SDS011;59888;55.814;37.132;2023-04-08T12:36:49;13.10;;;5.65;;
71395;SDS011;59888;55.814;37.132;2023-04-08T12:39:14;12.20;;;5.72;;
71395;SDS011;59888;55.814;37.132;2023-04-08T12:41:40;12.80;;;5.38;;
71395;SDS011;59888;55.814;37.132;2023-04-08T12:44:06;9.77;;;5.53;;
71395;SDS011;59888;55.814;37.132;2023-04-08T12:46:32;19.10;;;5.57;;
71395;SDS011;59888;55.814;37.132;2023-04-08T12:48:58;14.20;;;6.63;;
71395;SDS011;59888;55.814;37.132;2023-04-08T12:51:24;9.23;;;5.18;;
71395;SDS011;59888;55.814;37.132;2023-04-08T12:53:50;13.88;;;5.55;;
71395;SDS011;59888;55.814;37.132;2023-04-08T12:56:16;13.55;;;5.65;;
71395;SDS011;59888;55.814;37.132;2023-04-08T12:58:42;8.60;;;5.63;;
71395;SDS011;59888;55.814;37.132;2023-04-08T13:01:08;9.02;;;5.18;;
71395;SDS011;59888;55.814;37.132;2023-04-08T13:03:34;13.65;;;5.65;;
71395;SDS011;59888;55.814;37.132;2023-04-08T13:06:00;12.32;;;4.68;;
71395;SDS011;59888;55.814;37.132;2023-04-08T13:08:26;10.38;;;4.95;;
71395;SDS011;59888;55.814;37.132;2023-04-08T13:10:52;12.25;;;5.22;;
71395;SDS011;59888;55.814;37.132;2023-04-08T13:13:19;10.02;;;5.10;;
71395;SDS011;59888;55.814;37.132;2023-04-08T13:15:44;11.32;;;4.65;;
71395;SDS011;59888;55.814;37.132;2023-04-08T13:18:11;13.30;;;4.70;;
71395;SDS011;59888;55.814;37.132;2023-04-08T13:20:37;6.95;;;4.50;;
71395;SDS011;59888;55.814;37.132;2023-04-08T13:23:03;9.93;;;4.30;;
71395;SDS011;59888;55.814;37.132;2023-04-08T13:25:29;10.55;;;4.80;;
71395;SDS011;59888;55.814;37.132;2023-04-08T13:27:55;6.75;;;4.85;;
71395;SDS011;59888;55.814;37.132;2023-04-08T13:30:21;9.32;;;5.13;;
71395;SDS011;59888;55.814;37.132;2023-04-08T13:32:46;11.15;;;4.70;;
71395;SDS011;59888;55.814;37.132;2023-04-08T13:35:12;7.65;;;6.13;;
71395;SDS011;59888;55.814;37.132;2023-04-08T13:37:38;11.65;;;7.72;;
71395;SDS011;59888;55.814;37.132;2023-04-08T13:40:04;13.82;;;6.32;;
71395;SDS011;59888;55.814;37.132;2023-04-08T13:42:33;13.30;;;6.55;;
71395;SDS011;59888;55.814;37.132;2023-04-08T13:44:59;24.45;;;18.48;;
71395;SDS011;59888;55.814;37.132;2023-04-08T13:47:25;10.60;;;6.50;;
71395;SDS011;59888;55.814;37.132;2023-04-08T13:49:53;25.33;;;15.98;;
71395;SDS011;59888;55.814;37.132;2023-04-08T13:52:19;9.32;;;5.00;;
71395;SDS011;59888;55.814;37.132;2023-04-08T13:54:45;11.07;;;5.03;;
71395;SDS011;59888;55.814;37.132;2023-04-08T13:57:11;9.45;;;4.63;;
71395;SDS011;59888;55.814;37.132;2023-04-08T13:59:37;8.52;;;5.85;;
71395;SDS011;59888;55.814;37.132;2023-04-08T14:02:04;14.73;;;5.82;;
71395;SDS011;59888;55.814;37.132;2023-04-08T14:04:30;9.52;;;5.43;;
71395;SDS011;59888;55.814;37.132;2023-04-08T14:06:57;8.63;;;5.07;;
71395;SDS011;59888;55.814;37.132;2023-04-08T14:09:23;10.90;;;5.80;;
71395;SDS011;59888;55.814;37.132;2023-04-08T14:11:49;9.85;;;6.35;;
71395;SDS011;59888;55.814;37.132;2023-04-08T14:14:15;9.75;;;5.40;;
71395;SDS011;59888;55.814;37.132;2023-04-08T14:16:41;11.07;;;5.60;;
71395;SDS011;59888;55.814;37.132;2023-04-08T14:19:07;13.15;;;5.40;;
71395;SDS011;59888;55.814;37.132;2023-04-08T14:21:33;7.88;;;5.00;;
71395;SDS011;59888;55.814;37.132;2023-04-08T14:23:59;13.30;;;5.72;;
71395;SDS011;59888;55.814;37.132;2023-04-08T14:26:25;11.93;;;5.30;;
71395;SDS011;59888;55.814;37.132;2023-04-08T14:28:51;11.32;;;5.10;;
71395;SDS011;59888;55.814;37.132;2023-04-08T14:31:17;9.18;;;5.18;;
71395;SDS011;59888;55.814;37.132;2023-04-08T14:33:43;9.80;;;4.88;;
71395;SDS011;59888;55.814;37.132;2023-04-08T14:36:09;10.23;;;4.80;;
71395;SDS011;59888;55.814;37.132;2023-04-08T14:38:35;12.23;;;5.20;;
71395;SDS011;59888;55.814;37.132;2023-04-08T14:41:01;8.98;;;4.70;;
71395;SDS011;59888;55.814;37.132;2023-04-08T14:43:27;12.00;;;5.43;;
71395;SDS011;59888;55.814;37.132;2023-04-08T14:45:53;10.65;;;4.85;;
71395;SDS011;59888;55.814;37.132;2023-04-08T14:48:19;11.65;;;5.53;;
71395;SDS011;59888;55.814;37.132;2023-04-08T14:50:45;7.65;;;5.05;;
71395;SDS011;59888;55.814;37.132;2023-04-08T14:53:11;9.73;;;5.15;;
71395;SDS011;59888;55.814;37.132;2023-04-08T14:55:37;11.38;;;5.43;;
71395;SDS011;59888;55.814;37.132;2023-04-08T14:58:03;11.15;;;4.65;;
71395;SDS011;59888;55.814;37.132;2023-04-08T15:00:30;12.25;;;4.75;;
71395;SDS011;59888;55.814;37.132;2023-04-08T15:02:55;8.15;;;4.70;;
71395;SDS011;59888;55.814;37.132;2023-04-08T15:05:21;8.30;;;4.80;;
71395;SDS011;59888;55.814;37.132;2023-04-08T15:07:47;9.55;;;4.38;;
71395;SDS011;59888;55.814;37.132;2023-04-08T15:10:13;9.45;;;4.50;;
71395;SDS011;59888;55.814;37.132;2023-04-08T15:12:39;11.63;;;4.80;;
71395;SDS011;59888;55.814;37.132;2023-04-08T15:15:05;7.40;;;4.72;;
71395;SDS011;59888;55.814;37.132;2023-04-08T15:17:31;10.38;;;4.80;;
71395;SDS011;59888;55.814;37.132;2023-04-08T15:19:58;8.07;;;4.45;;
71395;SDS011;59888;55.814;37.132;2023-04-08T15:22:24;13.40;;;4.97;;
71395;SDS011;59888;55.814;37.132;2023-04-08T15:24:50;10.93;;;5.28;;
71395;SDS011;59888;55.814;37.132;2023-04-08T15:27:15;8.68;;;5.65;;
71395;SDS011;59888;55.814;37.132;2023-04-08T15:29:41;7.93;;;5.22;;
71395;SDS011;59888;55.814;37.132;2023-04-08T15:32:07;10.32;;;6.28;;
71395;SDS011;59888;55.814;37.132;2023-04-08T15:34:33;8.30;;;5.40;;
71395;SDS011;59888;55.814;37.132;2023-04-08T15:36:59;11.25;;;5.03;;
71395;SDS011;59888;55.814;37.132;2023-04-08T15:39:26;10.32;;;5.60;;
71395;SDS011;59888;55.814;37.132;2023-04-08T15:41:52;15.32;;;5.65;;
71395;SDS011;59888;55.814;37.132;2023-04-08T15:44:18;10.27;;;6.97;;
71395;SDS011;59888;55.814;37.132;2023-04-08T15:46:43;11.85;;;4.65;;
71395;SDS011;59888;55.814;37.132;2023-04-08T15:49:09;9.45;;;5.20;;
71395;SDS011;59888;55.814;37.132;2023-04-08T15:58:47;31.20;;;5.97;;
71395;SDS011;59888;55.814;37.132;2023-04-08T16:01:13;9.13;;;4.75;;
71395;SDS011;59888;55.814;37.132;2023-04-08T16:03:41;11.25;;;5.30;;
71395;SDS011;59888;55.814;37.132;2023-04-08T16:06:07;15.75;;;5.40;;
71395;SDS011;59888;55.814;37.132;2023-04-08T16:08:33;18.77;;;5.82;;
71395;SDS011;59888;55.814;37.132;2023-04-08T16:10:59;12.27;;;5.32;;
71395;SDS011;59888;55.814;37.132;2023-04-08T16:13:27;21.02;;;5.30;;
71395;SDS011;59888;55.814;37.132;2023-04-08T16:15:56;23.98;;;8.18;;
71395;SDS011;59888;55.814;37.132;2023-04-08T16:18:23;25.70;;;12.07;;
71395;SDS011;59888;55.814;37.132;2023-04-08T16:20:49;21.80;;;10.23;;
71395;SDS011;59888;55.814;37.132;2023-04-08T16:23:15;17.80;;;7.88;;
71395;SDS011;59888;55.814;37.132;2023-04-08T16:25:42;16.58;;;5.68;;
71395;SDS011;59888;55.814;37.132;2023-04-08T16:28:08;12.48;;;4.80;;
71395;SDS011;59888;55.814;37.132;2023-04-08T16:30:34;15.48;;;5.43;;
71395;SDS011;59888;55.814;37.132;2023-04-08T16:33:02;11.25;;;5.20;;
71395;SDS011;59888;55.814;37.132;2023-04-08T16:35:28;11.88;;;4.60;;
71395;SDS011;59888;55.814;37.132;2023-04-08T16:37:54;13.43;;;4.72;;
71395;SDS011;59888;55.814;37.132;2023-04-08T16:40:20;14.52;;;5.00;;
71395;SDS011;59888;55.814;37.132;2023-04-08T16:42:46;12.38;;;5.00;;
71395;SDS011;59888;55.814;37.132;2023-04-08T16:45:12;13.68;;;4.80;;
71395;SDS011;59888;55.814;37.132;2023-04-08T16:47:38;11.90;;;5.25;;
71395;SDS011;59888;55.814;37.132;2023-04-08T16:50:08;9.70;;;4.85;;
71395;SDS011;59888;55.814;37.132;2023-04-08T16:52:34;12.05;;;5.03;;
71395;SDS011;59888;55.814;37.132;2023-04-08T16:55:00;12.88;;;5.40;;
71395;SDS011;59888;55.814;37.132;2023-04-08T16:57:26;37.70;;;18.23;;
71395;SDS011;59888;55.814;37.132;2023-04-08T16:59:52;40.70;;;19.75;;
71395;SDS011;59888;55.814;37.132;2023-04-08T17:02:18;28.10;;;11.10;;
71395;SDS011;59888;55.814;37.132;2023-04-08T17:04:47;38.83;;;17.33;;
71395;SDS011;59888;55.814;37.132;2023-04-08T17:07:14;14.65;;;6.45;;
71395;SDS011;59888;55.814;37.132;2023-04-08T17:09:40;14.48;;;6.35;;
71395;SDS011;59888;55.814;37.132;2023-04-08T17:12:06;13.55;;;6.57;;
71395;SDS011;59888;55.814;37.132;2023-04-08T17:14:32;16.67;;;5.95;;
71395;SDS011;59888;55.814;37.132;2023-04-08T17:16:59;21.80;;;6.63;;
71395;SDS011;59888;55.814;37.132;2023-04-08T17:19:24;20.88;;;7.45;;
71395;SDS011;59888;55.814;37.132;2023-04-08T17:21:50;22.42;;;6.28;;
71395;SDS011;59888;55.814;37.132;2023-04-08T17:24:16;19.10;;;5.75;;
71395;SDS011;59888;55.814;37.132;2023-04-08T17:26:42;18.30;;;6.40;;
71395;SDS011;59888;55.814;37.132;2023-04-08T17:29:08;18.48;;;5.88;;
71395;SDS011;59888;55.814;37.132;2023-04-08T17:31:34;19.58;;;5.50;;
71395;SDS011;59888;55.814;37.132;2023-04-08T17:34:01;16.08;;;6.05;;
71395;SDS011;59888;55.814;37.132;2023-04-08T17:36:27;24.77;;;6.18;;
71395;SDS011;59888;55.814;37.132;2023-04-08T17:38:53;18.45;;;6.80;;
71395;SDS011;59888;55.814;37.132;2023-04-08T17:41:19;20.98;;;7.00;;
71395;SDS011;59888;55.814;37.132;2023-04-08T17:43:45;16.92;;;7.78;;
71395;SDS011;59888;55.814;37.132;2023-04-08T17:46:11;14.48;;;7.03;;
71395;SDS011;59888;55.814;37.132;2023-04-08T17:48:37;19.63;;;7.07;;
71395;SDS011;59888;55.814;37.132;2023-04-08T17:51:04;23.83;;;9.75;;
71395;SDS011;59888;55.814;37.132;2023-04-08T17:53:31;34.83;;;13.07;;
71395;SDS011;59888;55.814;37.132;2023-04-08T17:55:58;24.48;;;9.00;;
71395;SDS011;59888;55.814;37.132;2023-04-08T17:58:24;30.27;;;11.80;;
71395;SDS011;59888;55.814;37.132;2023-04-08T18:00:50;28.27;;;11.77;;
71395;SDS011;59888;55.814;37.132;2023-04-08T18:03:17;21.88;;;10.00;;
71395;SDS011;59888;55.814;37.132;2023-04-08T18:05:43;20.25;;;10.38;;
71395;SDS011;59888;55.814;37.132;2023-04-08T18:08:09;17.10;;;7.88;;
71395;SDS011;59888;55.814;37.132;2023-04-08T18:10:35;22.50;;;9.63;;
71395;SDS011;59888;55.814;37.132;2023-04-08T18:13:02;19.83;;;8.57;;
71395;SDS011;59888;55.814;37.132;2023-04-08T18:15:28;23.85;;;12.02;;
71395;SDS011;59888;55.814;37.132;2023-04-08T18:17:53;23.85;;;9.60;;
71395;SDS011;59888;55.814;37.132;2023-04-08T18:20:20;38.83;;;23.95;;
71395;SDS011;59888;55.814;37.132;2023-04-08T18:22:46;36.80;;;23.35;;
71395;SDS011;59888;55.814;37.132;2023-04-08T18:25:15;155.25;;;96.22;;
71395;SDS011;59888;55.814;37.132;2023-04-08T18:27:41;73.93;;;42.30;;
71395;SDS011;59888;55.814;37.132;2023-04-08T18:30:07;76.70;;;42.85;;
71395;SDS011;59888;55.814;37.132;2023-04-08T18:32:33;81.22;;;46.40;;
71395;SDS011;59888;55.814;37.132;2023-04-08T18:34:59;43.20;;;26.10;;
71395;SDS011;59888;55.814;37.132;2023-04-08T18:37:25;41.83;;;19.60;;
71395;SDS011;59888;55.814;37.132;2023-04-08T18:39:51;26.20;;;9.27;;
71395;SDS011;59888;55.814;37.132;2023-04-08T18:42:17;21.98;;;11.18;;
71395;SDS011;59888;55.814;37.132;2023-04-08T18:44:42;25.52;;;12.18;;
71395;SDS011;59888;55.814;37.132;2023-04-08T18:47:08;26.83;;;11.30;;
71395;SDS011;59888;55.814;37.132;2023-04-08T18:49:35;23.02;;;9.55;;
71395;SDS011;59888;55.814;37.132;2023-04-08T18:52:03;21.60;;;8.88;;
71395;SDS011;59888;55.814;37.132;2023-04-08T18:54:30;18.70;;;9.82;;
71395;SDS011;59888;55.814;37.132;2023-04-08T18:56:57;32.78;;;14.70;;
71395;SDS011;59888;55.814;37.132;2023-04-08T18:59:23;22.77;;;9.88;;
71395;SDS011;59888;55.814;37.132;2023-04-08T19:01:48;25.10;;;9.70;;
71395;SDS011;59888;55.814;37.132;2023-04-08T19:04:14;41.83;;;18.63;;
71395;SDS011;59888;55.814;37.132;2023-04-08T19:06:42;27.27;;;13.35;;
71395;SDS011;59888;55.814;37.132;2023-04-08T19:09:08;29.63;;;11.38;;
71395;SDS011;59888;55.814;37.132;2023-04-08T19:11:34;52.17;;;25.92;;
71395;SDS011;59888;55.814;37.132;2023-04-08T19:14:00;66.57;;;32.50;;
71395;SDS011;59888;55.814;37.132;2023-04-08T19:16:26;26.15;;;15.00;;
71395;SDS011;59888;55.814;37.132;2023-04-08T19:18:52;24.50;;;9.40;;
71395;SDS011;59888;55.814;37.132;2023-04-08T19:21:19;25.85;;;11.45;;
71395;SDS011;59888;55.814;37.132;2023-04-08T19:23:46;21.33;;;7.97;;
71395;SDS011;59888;55.814;37.132;2023-04-08T19:26:13;20.55;;;8.57;;
71395;SDS011;59888;55.814;37.132;2023-04-08T19:28:40;23.17;;;9.88;;
71395;SDS011;59888;55.814;37.132;2023-04-08T19:31:13;25.35;;;11.02;;
71395;SDS011;59888;55.814;37.132;2023-04-08T19:33:40;21.73;;;8.90;;
71395;SDS011;59888;55.814;37.132;2023-04-08T19:36:06;28.02;;;11.15;;
71395;SDS011;59888;55.814;37.132;2023-04-08T19:38:32;22.45;;;9.00;;
71395;SDS011;59888;55.814;37.132;2023-04-08T19:40:58;25.05;;;9.30;;
71395;SDS011;59888;55.814;37.132;2023-04-08T19:43:23;27.85;;;7.90;;
71395;SDS011;59888;55.814;37.132;2023-04-08T19:45:53;20.45;;;8.02;;
71395;SDS011;59888;55.814;37.132;2023-04-08T19:48:19;18.13;;;7.40;;
71395;SDS011;59888;55.814;37.132;2023-04-08T19:50:45;19.60;;;7.60;;
71395;SDS011;59888;55.814;37.132;2023-04-08T19:53:11;15.90;;;7.35;;
71395;SDS011;59888;55.814;37.132;2023-04-08T19:55:37;19.38;;;7.68;;
71395;SDS011;59888;55.814;37.132;2023-04-08T19:58:03;16.73;;;6.88;;
71395;SDS011;59888;55.814;37.132;2023-04-08T20:00:29;20.63;;;7.88;;
71395;SDS011;59888;55.814;37.132;2023-04-08T20:02:55;19.80;;;8.60;;
71395;SDS011;59888;55.814;37.132;2023-04-08T20:05:21;23.48;;;9.27;;
71395;SDS011;59888;55.814;37.132;2023-04-08T20:07:47;20.58;;;9.52;;
71395;SDS011;59888;55.814;37.132;2023-04-08T20:10:14;17.80;;;9.95;;
71395;SDS011;59888;55.814;37.132;2023-04-08T20:12:39;26.27;;;9.93;;
71395;SDS011;59888;55.814;37.132;2023-04-08T20:15:06;24.35;;;11.77;;